sensor_id;sensor_type;location;lat;lon;timestamp;pressure;altitude;pressure_sealevel;temperature
8227;BMP180;4154;48.810;9.012;2023-09-12T00:01:44;96808.00;;;19.50
8227;BMP180;4154;48.810;9.012;2023-09-12T00:04:10;96808.00;;;19.50
8227;BMP180;4154;48.810;9.012;2023-09-12T00:06:37;96812.00;;;19.50
8227;BMP180;4154;48.810;9.012;2023-09-12T00:09:03;96803.00;;;19.50
8227;BMP180;4154;48.810;9.012;2023-09-12T00:11:31;96815.00;;;19.50
8227;BMP180;4154;48.810;9.012;2023-09-12T00:13:57;96802.00;;;19.50
8227;BMP180;4154;48.810;9.012;2023-09-12T00:16:24;96807.00;;;19.50
8227;BMP180;4154;48.810;9.012;2023-09-12T00:18:50;96808.00;;;19.50
8227;BMP180;4154;48.810;9.012;2023-09-12T00:21:16;96802.00;;;19.50
8227;BMP180;4154;48.810;9.012;2023-09-12T00:23:42;96796.00;;;19.40
8227;BMP180;4154;48.810;9.012;2023-09-12T00:26:08;96800.00;;;19.40
8227;BMP180;4154;48.810;9.012;2023-09-12T00:28:33;96805.00;;;19.40
8227;BMP180;4154;48.810;9.012;2023-09-12T00:30:59;96803.00;;;19.30
8227;BMP180;4154;48.810;9.012;2023-09-12T00:33:25;96804.00;;;19.30
8227;BMP180;4154;48.810;9.012;2023-09-12T00:35:51;96805.00;;;19.30
8227;BMP180;4154;48.810;9.012;2023-09-12T00:38:16;96797.00;;;19.30
8227;BMP180;4154;48.810;9.012;2023-09-12T00:40:42;96804.00;;;19.30
8227;BMP180;4154;48.810;9.012;2023-09-12T00:43:08;96801.00;;;19.30
8227;BMP180;4154;48.810;9.012;2023-09-12T00:45:35;96803.00;;;19.20
8227;BMP180;4154;48.810;9.012;2023-09-12T00:48:04;96796.00;;;19.20
8227;BMP180;4154;48.810;9.012;2023-09-12T00:50:31;96794.00;;;19.20
8227;BMP180;4154;48.810;9.012;2023-09-12T00:52:57;96789.00;;;19.20
8227;BMP180;4154;48.810;9.012;2023-09-12T00:55:23;96785.00;;;19.10
8227;BMP180;4154;48.810;9.012;2023-09-12T00:57:51;96788.00;;;19.10
8227;BMP180;4154;48.810;9.012;2023-09-12T01:00:17;96789.00;;;19.10
8227;BMP180;4154;48.810;9.012;2023-09-12T01:02:45;96781.00;;;19.10
8227;BMP180;4154;48.810;9.012;2023-09-12T02:04:05;96766.00;;;18.60
8227;BMP180;4154;48.810;9.012;2023-09-12T02:06:35;96777.00;;;18.60
8227;BMP180;4154;48.810;9.012;2023-09-12T02:09:01;96769.00;;;18.50
8227;BMP180;4154;48.810;9.012;2023-09-12T02:11:27;96765.00;;;18.50
8227;BMP180;4154;48.810;9.012;2023-09-12T02:13:53;96762.00;;;18.50
8227;BMP180;4154;48.810;9.012;2023-09-12T02:16:19;96767.00;;;18.50
8227;BMP180;4154;48.810;9.012;2023-09-12T02:18:44;96769.00;;;18.50
8227;BMP180;4154;48.810;9.012;2023-09-12T02:21:10;96772.00;;;18.50
8227;BMP180;4154;48.810;9.012;2023-09-12T02:23:36;96769.00;;;18.50
8227;BMP180;4154;48.810;9.012;2023-09-12T02:26:02;96761.00;;;18.50
8227;BMP180;4154;48.810;9.012;2023-09-12T02:28:28;96774.00;;;18.50
8227;BMP180;4154;48.810;9.012;2023-09-12T02:30:53;96763.00;;;18.40
8227;BMP180;4154;48.810;9.012;2023-09-12T02:33:19;96761.00;;;18.40
8227;BMP180;4154;48.810;9.012;2023-09-12T02:35:44;96759.00;;;18.40
8227;BMP180;4154;48.810;9.012;2023-09-12T02:38:10;96755.00;;;18.40
8227;BMP180;4154;48.810;9.012;2023-09-12T02:40:36;96762.00;;;18.30
8227;BMP180;4154;48.810;9.012;2023-09-12T02:43:02;96753.00;;;18.30
8227;BMP180;4154;48.810;9.012;2023-09-12T02:45:27;96752.00;;;18.30
8227;BMP180;4154;48.810;9.012;2023-09-12T02:47:53;96750.00;;;18.30
8227;BMP180;4154;48.810;9.012;2023-09-12T02:50:19;96752.00;;;18.30
8227;BMP180;4154;48.810;9.012;2023-09-12T02:52:45;96748.00;;;18.30
8227;BMP180;4154;48.810;9.012;2023-09-12T02:55:10;96745.00;;;18.20
8227;BMP180;4154;48.810;9.012;2023-09-12T02:57:36;96749.00;;;18.20
8227;BMP180;4154;48.810;9.012;2023-09-12T03:00:02;96750.00;;;18.20
8227;BMP180;4154;48.810;9.012;2023-09-12T03:02:31;96748.00;;;18.20
8227;BMP180;4154;48.810;9.012;2023-09-12T03:04:57;96746.00;;;18.20
8227;BMP180;4154;48.810;9.012;2023-09-12T03:07:22;96748.00;;;18.20
8227;BMP180;4154;48.810;9.012;2023-09-12T03:09:49;96749.00;;;18.20
8227;BMP180;4154;48.810;9.012;2023-09-12T03:12:17;96751.00;;;18.20
8227;BMP180;4154;48.810;9.012;2023-09-12T03:14:43;96753.00;;;18.10
8227;BMP180;4154;48.810;9.012;2023-09-12T03:17:09;96736.00;;;18.10
8227;BMP180;4154;48.810;9.012;2023-09-12T03:19:35;96752.00;;;18.10
8227;BMP180;4154;48.810;9.012;2023-09-12T03:22:01;96745.00;;;18.10
8227;BMP180;4154;48.810;9.012;2023-09-12T03:24:27;96743.00;;;18.10
8227;BMP180;4154;48.810;9.012;2023-09-12T03:26:54;96740.00;;;18.10
8227;BMP180;4154;48.810;9.012;2023-09-12T03:29:20;96739.00;;;18.10
8227;BMP180;4154;48.810;9.012;2023-09-12T03:31:45;96742.00;;;18.10
8227;BMP180;4154;48.810;9.012;2023-09-12T03:34:12;96732.00;;;18.20
8227;BMP180;4154;48.810;9.012;2023-09-12T03:36:37;96725.00;;;18.20
8227;BMP180;4154;48.810;9.012;2023-09-12T03:39:03;96723.00;;;18.20
8227;BMP180;4154;48.810;9.012;2023-09-12T03:41:31;96745.00;;;18.20
8227;BMP180;4154;48.810;9.012;2023-09-12T03:43:56;96743.00;;;18.20
8227;BMP180;4154;48.810;9.012;2023-09-12T03:46:22;96728.00;;;18.20
8227;BMP180;4154;48.810;9.012;2023-09-12T03:48:48;96732.00;;;18.20
8227;BMP180;4154;48.810;9.012;2023-09-12T03:51:14;96725.00;;;18.20
8227;BMP180;4154;48.810;9.012;2023-09-12T03:53:39;96729.00;;;18.20
8227;BMP180;4154;48.810;9.012;2023-09-12T03:56:05;96727.00;;;18.20
8227;BMP180;4154;48.810;9.012;2023-09-12T03:58:31;96725.00;;;18.20
8227;BMP180;4154;48.810;9.012;2023-09-12T04:00:57;96730.00;;;18.20
8227;BMP180;4154;48.810;9.012;2023-09-12T04:03:23;96727.00;;;18.20
8227;BMP180;4154;48.810;9.012;2023-09-12T04:05:50;96729.00;;;18.20
8227;BMP180;4154;48.810;9.012;2023-09-12T04:08:16;96730.00;;;18.20
8227;BMP180;4154;48.810;9.012;2023-09-12T04:10:43;96722.00;;;18.20
8227;BMP180;4154;48.810;9.012;2023-09-12T04:13:09;96734.00;;;18.20
8227;BMP180;4154;48.810;9.012;2023-09-12T04:15:34;96721.00;;;18.20
8227;BMP180;4154;48.810;9.012;2023-09-12T04:18:00;96729.00;;;18.20
8227;BMP180;4154;48.810;9.012;2023-09-12T04:20:26;96725.00;;;18.20
8227;BMP180;4154;48.810;9.012;2023-09-12T04:22:52;96725.00;;;18.20
8227;BMP180;4154;48.810;9.012;2023-09-12T04:25:17;96726.00;;;18.20
8227;BMP180;4154;48.810;9.012;2023-09-12T04:27:46;96725.00;;;18.20
8227;BMP180;4154;48.810;9.012;2023-09-12T04:30:12;96715.00;;;18.20
8227;BMP180;4154;48.810;9.012;2023-09-12T04:32:38;96718.00;;;18.20
8227;BMP180;4154;48.810;9.012;2023-09-12T04:35:04;96720.00;;;18.20
8227;BMP180;4154;48.810;9.012;2023-09-12T04:37:30;96714.00;;;18.20
8227;BMP180;4154;48.810;9.012;2023-09-12T04:39:55;96718.00;;;18.20
8227;BMP180;4154;48.810;9.012;2023-09-12T04:42:22;96705.00;;;18.20
8227;BMP180;4154;48.810;9.012;2023-09-12T04:44:48;96719.00;;;18.20
8227;BMP180;4154;48.810;9.012;2023-09-12T04:47:14;96716.00;;;18.30
8227;BMP180;4154;48.810;9.012;2023-09-12T04:49:40;96716.00;;;18.30
8227;BMP180;4154;48.810;9.012;2023-09-12T04:52:06;96720.00;;;18.30
8227;BMP180;4154;48.810;9.012;2023-09-12T04:54:32;96723.00;;;18.30
8227;BMP180;4154;48.810;9.012;2023-09-12T04:56:57;96726.00;;;18.30
8227;BMP180;4154;48.810;9.012;2023-09-12T04:59:23;96714.00;;;18.30
8227;BMP180;4154;48.810;9.012;2023-09-12T05:01:49;96722.00;;;18.30
8227;BMP180;4154;48.810;9.012;2023-09-12T05:04:16;96720.00;;;18.30
8227;BMP180;4154;48.810;9.012;2023-09-12T05:06:42;96723.00;;;18.30
8227;BMP180;4154;48.810;9.012;2023-09-12T05:09:08;96718.00;;;18.40
8227;BMP180;4154;48.810;9.012;2023-09-12T05:11:35;96721.00;;;18.40
8227;BMP180;4154;48.810;9.012;2023-09-12T05:14:01;96724.00;;;18.40
8227;BMP180;4154;48.810;9.012;2023-09-12T05:16:29;96720.00;;;18.40
8227;BMP180;4154;48.810;9.012;2023-09-12T05:18:55;96716.00;;;18.50
8227;BMP180;4154;48.810;9.012;2023-09-12T05:21:20;96722.00;;;18.50
8227;BMP180;4154;48.810;9.012;2023-09-12T05:23:46;96725.00;;;18.50
8227;BMP180;4154;48.810;9.012;2023-09-12T05:26:12;96736.00;;;18.60
8227;BMP180;4154;48.810;9.012;2023-09-12T05:28:38;96735.00;;;18.60
8227;BMP180;4154;48.810;9.012;2023-09-12T05:31:04;96735.00;;;18.60
8227;BMP180;4154;48.810;9.012;2023-09-12T05:33:30;96733.00;;;18.70
8227;BMP180;4154;48.810;9.012;2023-09-12T05:35:56;96735.00;;;18.70
8227;BMP180;4154;48.810;9.012;2023-09-12T05:38:21;96736.00;;;18.80
8227;BMP180;4154;48.810;9.012;2023-09-12T05:40:48;96742.00;;;18.80
8227;BMP180;4154;48.810;9.012;2023-09-12T05:43:16;96751.00;;;18.80
8227;BMP180;4154;48.810;9.012;2023-09-12T05:45:43;96744.00;;;18.90
8227;BMP180;4154;48.810;9.012;2023-09-12T05:48:08;96749.00;;;18.90
8227;BMP180;4154;48.810;9.012;2023-09-12T05:50:38;96752.00;;;18.90
8227;BMP180;4154;48.810;9.012;2023-09-12T05:53:04;96757.00;;;19.00
8227;BMP180;4154;48.810;9.012;2023-09-12T05:55:29;96759.00;;;19.00
8227;BMP180;4154;48.810;9.012;2023-09-12T05:57:55;96756.00;;;19.00
8227;BMP180;4154;48.810;9.012;2023-09-12T06:00:21;96748.00;;;19.10
8227;BMP180;4154;48.810;9.012;2023-09-12T06:02:47;96752.00;;;19.10
8227;BMP180;4154;48.810;9.012;2023-09-12T06:05:16;96755.00;;;19.20
8227;BMP180;4154;48.810;9.012;2023-09-12T06:07:42;96764.00;;;19.30
8227;BMP180;4154;48.810;9.012;2023-09-12T06:10:09;96772.00;;;19.30
8227;BMP180;4154;48.810;9.012;2023-09-12T06:12:34;96766.00;;;19.30
8227;BMP180;4154;48.810;9.012;2023-09-12T06:15:02;96764.00;;;19.30
8227;BMP180;4154;48.810;9.012;2023-09-12T06:17:30;96767.00;;;19.40
8227;BMP180;4154;48.810;9.012;2023-09-12T06:19:55;96769.00;;;19.40
8227;BMP180;4154;48.810;9.012;2023-09-12T06:22:21;96770.00;;;19.50
8227;BMP180;4154;48.810;9.012;2023-09-12T06:24:49;96765.00;;;19.50
8227;BMP180;4154;48.810;9.012;2023-09-12T06:27:15;96766.00;;;19.50
8227;BMP180;4154;48.810;9.012;2023-09-12T06:29:48;96773.00;;;19.50
8227;BMP180;4154;48.810;9.012;2023-09-12T06:32:15;96776.00;;;19.50
8227;BMP180;4154;48.810;9.012;2023-09-12T06:34:41;96785.00;;;19.60
8227;BMP180;4154;48.810;9.012;2023-09-12T06:37:08;96779.00;;;19.60
8227;BMP180;4154;48.810;9.012;2023-09-12T06:39:34;96781.00;;;19.60
8227;BMP180;4154;48.810;9.012;2023-09-12T06:41:59;96785.00;;;19.60
8227;BMP180;4154;48.810;9.012;2023-09-12T06:44:25;96782.00;;;19.60
8227;BMP180;4154;48.810;9.012;2023-09-12T06:46:51;96784.00;;;19.70
8227;BMP180;4154;48.810;9.012;2023-09-12T06:49:17;96780.00;;;19.70
8227;BMP180;4154;48.810;9.012;2023-09-12T06:51:43;96779.00;;;19.70
8227;BMP180;4154;48.810;9.012;2023-09-12T06:54:08;96778.00;;;19.70
8227;BMP180;4154;48.810;9.012;2023-09-12T06:56:34;96777.00;;;19.80
8227;BMP180;4154;48.810;9.012;2023-09-12T06:59:04;96802.00;;;19.80
8227;BMP180;4154;48.810;9.012;2023-09-12T07:01:30;96798.00;;;19.80
8227;BMP180;4154;48.810;9.012;2023-09-12T07:03:56;96798.00;;;19.90
8227;BMP180;4154;48.810;9.012;2023-09-12T07:06:23;96803.00;;;19.90
8227;BMP180;4154;48.810;9.012;2023-09-12T07:08:49;96802.00;;;19.90
8227;BMP180;4154;48.810;9.012;2023-09-12T07:11:15;96804.00;;;19.90
8227;BMP180;4154;48.810;9.012;2023-09-12T07:13:41;96811.00;;;20.00
8227;BMP180;4154;48.810;9.012;2023-09-12T07:16:07;96804.00;;;20.00
8227;BMP180;4154;48.810;9.012;2023-09-12T07:18:33;96817.00;;;20.00
8227;BMP180;4154;48.810;9.012;2023-09-12T07:21:00;96815.00;;;20.00
8227;BMP180;4154;48.810;9.012;2023-09-12T07:23:27;96815.00;;;20.10
8227;BMP180;4154;48.810;9.012;2023-09-12T07:25:55;96816.00;;;20.10
8227;BMP180;4154;48.810;9.012;2023-09-12T07:28:25;96819.00;;;20.10
8227;BMP180;4154;48.810;9.012;2023-09-12T07:30:52;96807.00;;;20.10
8227;BMP180;4154;48.810;9.012;2023-09-12T07:33:19;96807.00;;;20.20
8227;BMP180;4154;48.810;9.012;2023-09-12T07:35:46;96805.00;;;20.20
8227;BMP180;4154;48.810;9.012;2023-09-12T07:38:12;96812.00;;;20.30
8227;BMP180;4154;48.810;9.012;2023-09-12T07:40:41;96815.00;;;20.40
8227;BMP180;4154;48.810;9.012;2023-09-12T07:43:07;96803.00;;;20.40
8227;BMP180;4154;48.810;9.012;2023-09-12T07:45:33;96812.00;;;20.50
8227;BMP180;4154;48.810;9.012;2023-09-12T07:48:07;96814.00;;;20.60
8227;BMP180;4154;48.810;9.012;2023-09-12T07:50:32;96819.00;;;20.70
8227;BMP180;4154;48.810;9.012;2023-09-12T07:52:58;96818.00;;;20.80
8227;BMP180;4154;48.810;9.012;2023-09-12T07:55:24;96822.00;;;20.80
8227;BMP180;4154;48.810;9.012;2023-09-12T07:57:50;96823.00;;;20.90
8227;BMP180;4154;48.810;9.012;2023-09-12T08:00:16;96819.00;;;20.90
8227;BMP180;4154;48.810;9.012;2023-09-12T08:02:42;96840.00;;;21.00
8227;BMP180;4154;48.810;9.012;2023-09-12T08:05:08;96831.00;;;21.00
8227;BMP180;4154;48.810;9.012;2023-09-12T08:07:35;96839.00;;;21.00
8227;BMP180;4154;48.810;9.012;2023-09-12T08:10:01;96837.00;;;21.00
8227;BMP180;4154;48.810;9.012;2023-09-12T08:12:28;96842.00;;;21.10
8227;BMP180;4154;48.810;9.012;2023-09-12T08:14:57;96840.00;;;21.10
8227;BMP180;4154;48.810;9.012;2023-09-12T08:17:23;96824.00;;;21.10
8227;BMP180;4154;48.810;9.012;2023-09-12T08:19:49;96827.00;;;21.10
8227;BMP180;4154;48.810;9.012;2023-09-12T08:22:15;96832.00;;;21.10
8227;BMP180;4154;48.810;9.012;2023-09-12T08:24:41;96825.00;;;21.10
8227;BMP180;4154;48.810;9.012;2023-09-12T08:27:07;96828.00;;;21.20
8227;BMP180;4154;48.810;9.012;2023-09-12T08:29:33;96833.00;;;21.20
8227;BMP180;4154;48.810;9.012;2023-09-12T08:32:00;96832.00;;;21.20
8227;BMP180;4154;48.810;9.012;2023-09-12T08:34:26;96826.00;;;21.30
8227;BMP180;4154;48.810;9.012;2023-09-12T08:36:53;96828.00;;;21.40
8227;BMP180;4154;48.810;9.012;2023-09-12T08:39:27;96826.00;;;21.40
8227;BMP180;4154;48.810;9.012;2023-09-12T08:41:54;96835.00;;;21.40
8227;BMP180;4154;48.810;9.012;2023-09-12T08:44:21;96832.00;;;21.50
8227;BMP180;4154;48.810;9.012;2023-09-12T08:46:47;96834.00;;;21.50
8227;BMP180;4154;48.810;9.012;2023-09-12T08:49:13;96830.00;;;21.60
8227;BMP180;4154;48.810;9.012;2023-09-12T08:51:40;96828.00;;;21.70
8227;BMP180;4154;48.810;9.012;2023-09-12T08:54:07;96826.00;;;21.80
8227;BMP180;4154;48.810;9.012;2023-09-12T08:56:36;96830.00;;;22.00
8227;BMP180;4154;48.810;9.012;2023-09-12T08:59:05;96837.00;;;22.00
8227;BMP180;4154;48.810;9.012;2023-09-12T09:01:32;96836.00;;;22.10
8227;BMP180;4154;48.810;9.012;2023-09-12T09:03:58;96833.00;;;22.10
8227;BMP180;4154;48.810;9.012;2023-09-12T09:06:25;96832.00;;;22.20
8227;BMP180;4154;48.810;9.012;2023-09-12T09:08:51;96833.00;;;22.30
8227;BMP180;4154;48.810;9.012;2023-09-12T09:11:18;96824.00;;;22.40
8227;BMP180;4154;48.810;9.012;2023-09-12T09:13:43;96834.00;;;22.50
8227;BMP180;4154;48.810;9.012;2023-09-12T09:16:12;96835.00;;;22.60
8227;BMP180;4154;48.810;9.012;2023-09-12T09:18:59;96828.00;;;22.70
8227;BMP180;4154;48.810;9.012;2023-09-12T09:21:31;96828.00;;;22.80
8227;BMP180;4154;48.810;9.012;2023-09-12T09:24:12;96823.00;;;22.90
8227;BMP180;4154;48.810;9.012;2023-09-12T09:26:49;96820.00;;;23.00
8227;BMP180;4154;48.810;9.012;2023-09-12T09:29:21;96818.00;;;23.10
8227;BMP180;4154;48.810;9.012;2023-09-12T09:31:50;96813.00;;;23.20
8227;BMP180;4154;48.810;9.012;2023-09-12T09:34:18;96813.00;;;23.30
8227;BMP180;4154;48.810;9.012;2023-09-12T09:36:49;96812.00;;;23.40
8227;BMP180;4154;48.810;9.012;2023-09-12T09:39:18;96816.00;;;23.40
8227;BMP180;4154;48.810;9.012;2023-09-12T09:41:52;96813.00;;;23.50
8227;BMP180;4154;48.810;9.012;2023-09-12T09:44:18;96813.00;;;23.50
8227;BMP180;4154;48.810;9.012;2023-09-12T09:46:46;96811.00;;;23.60
8227;BMP180;4154;48.810;9.012;2023-09-12T09:49:15;96809.00;;;23.60
8227;BMP180;4154;48.810;9.012;2023-09-12T09:51:44;96805.00;;;23.70
8227;BMP180;4154;48.810;9.012;2023-09-12T09:54:13;96798.00;;;23.80
8227;BMP180;4154;48.810;9.012;2023-09-12T09:56:52;96789.00;;;23.80
8227;BMP180;4154;48.810;9.012;2023-09-12T09:59:26;96791.00;;;23.80
8227;BMP180;4154;48.810;9.012;2023-09-12T10:01:58;96794.00;;;23.90
8227;BMP180;4154;48.810;9.012;2023-09-12T10:04:27;96790.00;;;24.00
8227;BMP180;4154;48.810;9.012;2023-09-12T10:06:56;96792.00;;;24.10
8227;BMP180;4154;48.810;9.012;2023-09-12T10:09:25;96792.00;;;24.20
8227;BMP180;4154;48.810;9.012;2023-09-12T10:11:55;96793.00;;;24.20
8227;BMP180;4154;48.810;9.012;2023-09-12T10:14:23;96788.00;;;24.40
8227;BMP180;4154;48.810;9.012;2023-09-12T10:16:58;96799.00;;;24.50
8227;BMP180;4154;48.810;9.012;2023-09-12T10:19:43;96788.00;;;24.60
8227;BMP180;4154;48.810;9.012;2023-09-12T10:22:37;96795.00;;;24.60
8227;BMP180;4154;48.810;9.012;2023-09-12T10:25:06;96795.00;;;24.70
8227;BMP180;4154;48.810;9.012;2023-09-12T10:27:33;96790.00;;;24.70
8227;BMP180;4154;48.810;9.012;2023-09-12T10:30:01;96791.00;;;24.80
8227;BMP180;4154;48.810;9.012;2023-09-12T10:32:30;96784.00;;;24.80
8227;BMP180;4154;48.810;9.012;2023-09-12T10:34:59;96789.00;;;24.80
8227;BMP180;4154;48.810;9.012;2023-09-12T10:37:26;96794.00;;;24.80
8227;BMP180;4154;48.810;9.012;2023-09-12T10:39:54;96791.00;;;24.90
8227;BMP180;4154;48.810;9.012;2023-09-12T10:42:24;96784.00;;;25.00
8227;BMP180;4154;48.810;9.012;2023-09-12T10:44:51;96788.00;;;25.10
8227;BMP180;4154;48.810;9.012;2023-09-12T10:47:18;96793.00;;;25.10
8227;BMP180;4154;48.810;9.012;2023-09-12T10:49:44;96789.00;;;25.20
8227;BMP180;4154;48.810;9.012;2023-09-12T10:52:10;96793.00;;;25.40
8227;BMP180;4154;48.810;9.012;2023-09-12T10:54:40;96789.00;;;25.40
8227;BMP180;4154;48.810;9.012;2023-09-12T10:57:10;96790.00;;;25.50
8227;BMP180;4154;48.810;9.012;2023-09-12T11:02:40;96791.00;;;25.60
8227;BMP180;4154;48.810;9.012;2023-09-12T11:08:01;96779.00;;;25.80
8227;BMP180;4154;48.810;9.012;2023-09-12T11:10:29;96777.00;;;25.90
8227;BMP180;4154;48.810;9.012;2023-09-12T11:12:58;96780.00;;;26.00
8227;BMP180;4154;48.810;9.012;2023-09-12T11:15:27;96770.00;;;26.10
8227;BMP180;4154;48.810;9.012;2023-09-12T11:18:05;96771.00;;;26.20
8227;BMP180;4154;48.810;9.012;2023-09-12T11:21:02;96772.00;;;26.20
8227;BMP180;4154;48.810;9.012;2023-09-12T11:23:29;96769.00;;;26.30
8227;BMP180;4154;48.810;9.012;2023-09-12T11:26:06;96774.00;;;26.30
8227;BMP180;4154;48.810;9.012;2023-09-12T11:28:33;96762.00;;;26.40
8227;BMP180;4154;48.810;9.012;2023-09-12T11:30:59;96768.00;;;26.50
8227;BMP180;4154;48.810;9.012;2023-09-12T11:33:25;96751.00;;;26.60
8227;BMP180;4154;48.810;9.012;2023-09-12T11:35:55;96756.00;;;26.60
8227;BMP180;4154;48.810;9.012;2023-09-12T11:38:30;96755.00;;;26.70
8227;BMP180;4154;48.810;9.012;2023-09-12T11:40:58;96753.00;;;26.80
8227;BMP180;4154;48.810;9.012;2023-09-12T11:43:26;96759.00;;;26.80
8227;BMP180;4154;48.810;9.012;2023-09-12T11:45:54;96761.00;;;26.90
8227;BMP180;4154;48.810;9.012;2023-09-12T11:48:20;96760.00;;;27.00
8227;BMP180;4154;48.810;9.012;2023-09-12T11:50:54;96765.00;;;27.10
8227;BMP180;4154;48.810;9.012;2023-09-12T11:53:23;96755.00;;;27.20
8227;BMP180;4154;48.810;9.012;2023-09-12T11:55:54;96754.00;;;27.30
8227;BMP180;4154;48.810;9.012;2023-09-12T11:58:21;96755.00;;;27.30
8227;BMP180;4154;48.810;9.012;2023-09-12T12:00:50;96754.00;;;27.50
8227;BMP180;4154;48.810;9.012;2023-09-12T12:03:19;96756.00;;;27.70
8227;BMP180;4154;48.810;9.012;2023-09-12T12:05:46;96757.00;;;27.80
8227;BMP180;4154;48.810;9.012;2023-09-12T12:08:13;96752.00;;;27.90
8227;BMP180;4154;48.810;9.012;2023-09-12T12:10:39;96747.00;;;27.90
8227;BMP180;4154;48.810;9.012;2023-09-12T12:13:11;96748.00;;;27.90
8227;BMP180;4154;48.810;9.012;2023-09-12T12:15:37;96746.00;;;27.90
8227;BMP180;4154;48.810;9.012;2023-09-12T12:18:03;96742.00;;;27.90
8227;BMP180;4154;48.810;9.012;2023-09-12T12:20:29;96741.00;;;28.00
8227;BMP180;4154;48.810;9.012;2023-09-12T12:22:56;96732.00;;;27.90
8227;BMP180;4154;48.810;9.012;2023-09-12T12:25:22;96740.00;;;27.90
8227;BMP180;4154;48.810;9.012;2023-09-12T12:27:49;96733.00;;;28.00
8227;BMP180;4154;48.810;9.012;2023-09-12T12:30:14;96746.00;;;27.80
8227;BMP180;4154;48.810;9.012;2023-09-12T12:32:42;96744.00;;;27.90
8227;BMP180;4154;48.810;9.012;2023-09-12T12:35:09;96742.00;;;28.00
8227;BMP180;4154;48.810;9.012;2023-09-12T12:37:36;96745.00;;;28.10
8227;BMP180;4154;48.810;9.012;2023-09-12T12:40:03;96744.00;;;28.10
8227;BMP180;4154;48.810;9.012;2023-09-12T12:42:38;96752.00;;;28.00
8227;BMP180;4154;48.810;9.012;2023-09-12T12:45:19;96744.00;;;28.10
8227;BMP180;4154;48.810;9.012;2023-09-12T12:47:45;96729.00;;;28.10
8227;BMP180;4154;48.810;9.012;2023-09-12T12:50:16;96751.00;;;28.20
8227;BMP180;4154;48.810;9.012;2023-09-12T12:52:48;96743.00;;;28.30
8227;BMP180;4154;48.810;9.012;2023-09-12T12:55:15;96745.00;;;28.40
8227;BMP180;4154;48.810;9.012;2023-09-12T12:57:43;96752.00;;;28.40
8227;BMP180;4154;48.810;9.012;2023-09-12T13:00:12;96745.00;;;28.30
8227;BMP180;4154;48.810;9.012;2023-09-12T13:02:43;96742.00;;;28.20
8227;BMP180;4154;48.810;9.012;2023-09-12T13:05:28;96741.00;;;28.10
8227;BMP180;4154;48.810;9.012;2023-09-12T13:07:55;96733.00;;;27.90
8227;BMP180;4154;48.810;9.012;2023-09-12T13:10:22;96728.00;;;27.80
8227;BMP180;4154;48.810;9.012;2023-09-12T13:12:49;96726.00;;;27.80
8227;BMP180;4154;48.810;9.012;2023-09-12T13:15:16;96725.00;;;27.80
8227;BMP180;4154;48.810;9.012;2023-09-12T13:17:43;96722.00;;;27.70
8227;BMP180;4154;48.810;9.012;2023-09-12T13:20:10;96730.00;;;27.80
8227;BMP180;4154;48.810;9.012;2023-09-12T13:22:37;96729.00;;;27.70
8227;BMP180;4154;48.810;9.012;2023-09-12T13:25:04;96730.00;;;27.70
8227;BMP180;4154;48.810;9.012;2023-09-12T13:27:31;96726.00;;;27.70
8227;BMP180;4154;48.810;9.012;2023-09-12T13:29:56;96724.00;;;27.60
8227;BMP180;4154;48.810;9.012;2023-09-12T13:32:22;96720.00;;;27.60
8227;BMP180;4154;48.810;9.012;2023-09-12T13:34:48;96723.00;;;27.60
8227;BMP180;4154;48.810;9.012;2023-09-12T13:37:16;96721.00;;;27.60
8227;BMP180;4154;48.810;9.012;2023-09-12T13:39:42;96719.00;;;27.50
8227;BMP180;4154;48.810;9.012;2023-09-12T13:42:18;96718.00;;;27.50
8227;BMP180;4154;48.810;9.012;2023-09-12T13:44:47;96703.00;;;27.60
8227;BMP180;4154;48.810;9.012;2023-09-12T13:47:13;96705.00;;;27.60
8227;BMP180;4154;48.810;9.012;2023-09-12T13:49:39;96708.00;;;27.60
8227;BMP180;4154;48.810;9.012;2023-09-12T13:52:05;96702.00;;;27.70
8227;BMP180;4154;48.810;9.012;2023-09-12T13:54:31;96705.00;;;27.70
8227;BMP180;4154;48.810;9.012;2023-09-12T13:56:57;96701.00;;;27.70
8227;BMP180;4154;48.810;9.012;2023-09-12T13:59:23;96704.00;;;27.70
8227;BMP180;4154;48.810;9.012;2023-09-12T14:01:48;96700.00;;;27.80
8227;BMP180;4154;48.810;9.012;2023-09-12T14:04:14;96690.00;;;27.70
8227;BMP180;4154;48.810;9.012;2023-09-12T14:06:41;96691.00;;;27.80
8227;BMP180;4154;48.810;9.012;2023-09-12T14:09:07;96690.00;;;27.90
8227;BMP180;4154;48.810;9.012;2023-09-12T14:11:33;96685.00;;;27.90
8227;BMP180;4154;48.810;9.012;2023-09-12T14:13:58;96682.00;;;27.90
8227;BMP180;4154;48.810;9.012;2023-09-12T14:16:24;96701.00;;;27.90
8227;BMP180;4154;48.810;9.012;2023-09-12T14:18:49;96701.00;;;27.90
8227;BMP180;4154;48.810;9.012;2023-09-12T14:21:15;96691.00;;;27.90
8227;BMP180;4154;48.810;9.012;2023-09-12T14:23:40;96701.00;;;28.00
8227;BMP180;4154;48.810;9.012;2023-09-12T14:26:06;96698.00;;;28.10
8227;BMP180;4154;48.810;9.012;2023-09-12T14:28:32;96704.00;;;28.10
8227;BMP180;4154;48.810;9.012;2023-09-12T14:31:00;96707.00;;;28.10
8227;BMP180;4154;48.810;9.012;2023-09-12T14:33:26;96706.00;;;28.00
8227;BMP180;4154;48.810;9.012;2023-09-12T14:35:52;96710.00;;;27.90
8227;BMP180;4154;48.810;9.012;2023-09-12T14:38:17;96713.00;;;27.80
8227;BMP180;4154;48.810;9.012;2023-09-12T14:40:43;96707.00;;;27.60
8227;BMP180;4154;48.810;9.012;2023-09-12T14:43:09;96709.00;;;27.60
8227;BMP180;4154;48.810;9.012;2023-09-12T14:45:34;96708.00;;;27.50
8227;BMP180;4154;48.810;9.012;2023-09-12T14:48:00;96713.00;;;27.50
8227;BMP180;4154;48.810;9.012;2023-09-12T14:50:25;96708.00;;;27.40
8227;BMP180;4154;48.810;9.012;2023-09-12T14:52:55;96715.00;;;27.40
8227;BMP180;4154;48.810;9.012;2023-09-12T14:55:21;96715.00;;;27.50
8227;BMP180;4154;48.810;9.012;2023-09-12T14:57:47;96699.00;;;27.50
8227;BMP180;4154;48.810;9.012;2023-09-12T15:00:14;96711.00;;;27.50
8227;BMP180;4154;48.810;9.012;2023-09-12T15:02:40;96708.00;;;27.60
8227;BMP180;4154;48.810;9.012;2023-09-12T15:05:07;96700.00;;;27.60
8227;BMP180;4154;48.810;9.012;2023-09-12T15:07:33;96701.00;;;27.60
8227;BMP180;4154;48.810;9.012;2023-09-12T15:09:59;96696.00;;;27.60
8227;BMP180;4154;48.810;9.012;2023-09-12T15:12:25;96705.00;;;27.60
8227;BMP180;4154;48.810;9.012;2023-09-12T15:14:51;96699.00;;;27.60
8227;BMP180;4154;48.810;9.012;2023-09-12T15:17:18;96696.00;;;27.60
8227;BMP180;4154;48.810;9.012;2023-09-12T15:19:44;96696.00;;;27.60
8227;BMP180;4154;48.810;9.012;2023-09-12T15:22:10;96689.00;;;27.70
8227;BMP180;4154;48.810;9.012;2023-09-12T15:24:35;96700.00;;;27.80
8227;BMP180;4154;48.810;9.012;2023-09-12T15:27:01;96687.00;;;27.80
8227;BMP180;4154;48.810;9.012;2023-09-12T15:29:26;96688.00;;;27.80
8227;BMP180;4154;48.810;9.012;2023-09-12T15:31:53;96692.00;;;27.80
8227;BMP180;4154;48.810;9.012;2023-09-12T15:34:20;96689.00;;;27.80
8227;BMP180;4154;48.810;9.012;2023-09-12T15:36:47;96685.00;;;27.90
8227;BMP180;4154;48.810;9.012;2023-09-12T15:39:14;96682.00;;;27.80